ADD weather

Addis Ababa Bole International Airport
Addis Ababa, Addis Ababa, Ethiopia

Public forecast

Using degrees Celsius for public forecast. Weather courtesy of forecast.io.

METAR (pilot weather report)

Retrieved 2019/03/23 10:00 UTC (49 minutes ago):

HAAB 231000Z 15008KT 9999 FEW025 26/06 Q1025

TAF (pilot weather forecast)

Forecast is more than 12 hours old.

Retrieved 2019/03/22 12:54 UTC (22 hours ago):

TAF TAF HAAB 220930Z 2212/2318 09010KT 9999 SCT030 FEW100 BECMG 2212/2215 12010KT SCT029